sensor_id;sensor_type;location;lat;lon;timestamp;P1;durP1;ratioP1;P2;durP2;ratioP2
64834;SDS011;51293;59.296;18.006;2022-10-15T00:02:07;14.35;;;8.35;;
64834;SDS011;51293;59.296;18.006;2022-10-15T00:04:32;16.42;;;8.25;;
64834;SDS011;51293;59.296;18.006;2022-10-15T00:06:58;16.40;;;8.15;;
64834;SDS011;51293;59.296;18.006;2022-10-15T00:09:23;16.65;;;8.68;;
64834;SDS011;51293;59.296;18.006;2022-10-15T00:11:49;17.35;;;9.18;;
64834;SDS011;51293;59.296;18.006;2022-10-15T00:14:15;14.38;;;8.40;;
64834;SDS011;51293;59.296;18.006;2022-10-15T00:16:41;15.75;;;8.15;;
64834;SDS011;51293;59.296;18.006;2022-10-15T00:19:06;17.38;;;8.63;;
64834;SDS011;51293;59.296;18.006;2022-10-15T00:21:31;16.95;;;8.23;;
64834;SDS011;51293;59.296;18.006;2022-10-15T00:23:57;12.95;;;7.65;;
64834;SDS011;51293;59.296;18.006;2022-10-15T00:26:23;14.50;;;7.80;;
64834;SDS011;51293;59.296;18.006;2022-10-15T00:28:51;18.50;;;8.63;;
64834;SDS011;51293;59.296;18.006;2022-10-15T00:31:18;14.65;;;8.68;;
64834;SDS011;51293;59.296;18.006;2022-10-15T00:33:45;12.63;;;7.75;;
64834;SDS011;51293;59.296;18.006;2022-10-15T00:36:13;14.18;;;7.70;;
64834;SDS011;51293;59.296;18.006;2022-10-15T00:38:41;15.02;;;8.00;;
64834;SDS011;51293;59.296;18.006;2022-10-15T00:41:07;13.25;;;7.78;;
64834;SDS011;51293;59.296;18.006;2022-10-15T00:43:47;12.38;;;7.50;;
64834;SDS011;51293;59.296;18.006;2022-10-15T00:46:33;14.55;;;7.72;;
64834;SDS011;51293;59.296;18.006;2022-10-15T00:51:40;14.82;;;6.90;;
64834;SDS011;51293;59.296;18.006;2022-10-15T00:54:08;12.38;;;6.45;;
64834;SDS011;51293;59.296;18.006;2022-10-15T00:56:35;11.68;;;6.60;;
64834;SDS011;51293;59.296;18.006;2022-10-15T00:59:03;11.82;;;6.57;;
64834;SDS011;51293;59.296;18.006;2022-10-15T01:01:30;12.05;;;6.30;;
64834;SDS011;51293;59.296;18.006;2022-10-15T01:03:56;11.70;;;5.95;;
64834;SDS011;51293;59.296;18.006;2022-10-15T01:06:22;11.52;;;6.07;;
64834;SDS011;51293;59.296;18.006;2022-10-15T01:08:49;9.32;;;6.07;;
64834;SDS011;51293;59.296;18.006;2022-10-15T01:22:22;12.18;;;5.72;;
64834;SDS011;51293;59.296;18.006;2022-10-15T01:28:23;11.02;;;6.10;;
64834;SDS011;51293;59.296;18.006;2022-10-15T01:31:38;14.15;;;5.80;;
64834;SDS011;51293;59.296;18.006;2022-10-15T01:39:56;11.63;;;5.57;;
64834;SDS011;51293;59.296;18.006;2022-10-15T01:42:30;10.00;;;6.30;;
64834;SDS011;51293;59.296;18.006;2022-10-15T01:45:02;10.95;;;6.25;;
64834;SDS011;51293;59.296;18.006;2022-10-15T01:47:41;14.60;;;6.50;;
64834;SDS011;51293;59.296;18.006;2022-10-15T01:50:18;14.70;;;6.40;;
64834;SDS011;51293;59.296;18.006;2022-10-15T01:52:46;11.48;;;6.20;;
64834;SDS011;51293;59.296;18.006;2022-10-15T01:55:15;9.18;;;5.70;;
64834;SDS011;51293;59.296;18.006;2022-10-15T01:57:43;12.27;;;6.05;;
64834;SDS011;51293;59.296;18.006;2022-10-15T02:00:10;10.43;;;5.93;;
64834;SDS011;51293;59.296;18.006;2022-10-15T02:02:36;9.77;;;5.80;;
64834;SDS011;51293;59.296;18.006;2022-10-15T02:05:02;9.95;;;6.10;;
64834;SDS011;51293;59.296;18.006;2022-10-15T02:15:37;12.93;;;5.55;;
64834;SDS011;51293;59.296;18.006;2022-10-15T02:18:26;9.50;;;5.40;;
64834;SDS011;51293;59.296;18.006;2022-10-15T02:21:11;11.27;;;5.85;;
64834;SDS011;51293;59.296;18.006;2022-10-15T02:26:35;10.60;;;5.70;;
64834;SDS011;51293;59.296;18.006;2022-10-15T02:29:03;8.60;;;5.22;;
64834;SDS011;51293;59.296;18.006;2022-10-15T02:31:33;11.35;;;5.80;;
64834;SDS011;51293;59.296;18.006;2022-10-15T02:34:03;9.65;;;5.22;;
64834;SDS011;51293;59.296;18.006;2022-10-15T02:36:31;10.05;;;4.93;;
64834;SDS011;51293;59.296;18.006;2022-10-15T02:38:57;11.90;;;5.47;;
64834;SDS011;51293;59.296;18.006;2022-10-15T02:41:26;10.95;;;5.00;;
64834;SDS011;51293;59.296;18.006;2022-10-15T02:43:53;12.25;;;5.13;;
64834;SDS011;51293;59.296;18.006;2022-10-15T02:46:19;8.40;;;4.90;;
64834;SDS011;51293;59.296;18.006;2022-10-15T02:48:45;14.20;;;5.40;;
64834;SDS011;51293;59.296;18.006;2022-10-15T02:51:10;10.70;;;5.15;;
64834;SDS011;51293;59.296;18.006;2022-10-15T02:53:36;11.18;;;5.03;;
64834;SDS011;51293;59.296;18.006;2022-10-15T02:56:01;10.63;;;5.10;;
64834;SDS011;51293;59.296;18.006;2022-10-15T02:58:26;10.85;;;4.93;;
64834;SDS011;51293;59.296;18.006;2022-10-15T03:00:53;8.00;;;4.82;;
64834;SDS011;51293;59.296;18.006;2022-10-15T03:03:19;9.25;;;4.90;;
64834;SDS011;51293;59.296;18.006;2022-10-15T03:05:44;8.50;;;4.60;;
64834;SDS011;51293;59.296;18.006;2022-10-15T03:08:10;8.30;;;4.80;;
64834;SDS011;51293;59.296;18.006;2022-10-15T03:10:35;8.48;;;4.95;;
64834;SDS011;51293;59.296;18.006;2022-10-15T03:13:01;8.25;;;4.47;;
64834;SDS011;51293;59.296;18.006;2022-10-15T03:15:30;10.32;;;5.10;;
64834;SDS011;51293;59.296;18.006;2022-10-15T03:17:55;9.13;;;4.57;;
64834;SDS011;51293;59.296;18.006;2022-10-15T03:20:21;7.72;;;5.05;;
64834;SDS011;51293;59.296;18.006;2022-10-15T03:22:47;6.80;;;4.50;;
64834;SDS011;51293;59.296;18.006;2022-10-15T03:25:12;7.30;;;4.63;;
64834;SDS011;51293;59.296;18.006;2022-10-15T03:27:38;10.65;;;5.07;;
64834;SDS011;51293;59.296;18.006;2022-10-15T03:30:04;10.70;;;4.65;;
64834;SDS011;51293;59.296;18.006;2022-10-15T03:32:29;10.60;;;5.10;;
64834;SDS011;51293;59.296;18.006;2022-10-15T03:34:55;8.05;;;4.53;;
64834;SDS011;51293;59.296;18.006;2022-10-15T03:37:20;15.30;;;4.93;;
64834;SDS011;51293;59.296;18.006;2022-10-15T03:39:46;7.57;;;4.95;;
64834;SDS011;51293;59.296;18.006;2022-10-15T03:42:11;12.18;;;4.88;;
64834;SDS011;51293;59.296;18.006;2022-10-15T03:44:36;11.23;;;4.47;;
64834;SDS011;51293;59.296;18.006;2022-10-15T03:47:02;13.82;;;5.25;;
64834;SDS011;51293;59.296;18.006;2022-10-15T03:49:27;13.65;;;4.47;;
64834;SDS011;51293;59.296;18.006;2022-10-15T03:51:53;7.47;;;4.35;;
64834;SDS011;51293;59.296;18.006;2022-10-15T03:54:18;15.25;;;4.90;;
64834;SDS011;51293;59.296;18.006;2022-10-15T03:56:43;9.55;;;5.05;;
64834;SDS011;51293;59.296;18.006;2022-10-15T03:59:09;8.88;;;4.72;;
64834;SDS011;51293;59.296;18.006;2022-10-15T04:01:34;11.25;;;4.57;;
64834;SDS011;51293;59.296;18.006;2022-10-15T04:03:59;12.00;;;4.93;;
64834;SDS011;51293;59.296;18.006;2022-10-15T04:06:25;13.07;;;4.35;;
64834;SDS011;51293;59.296;18.006;2022-10-15T04:08:50;8.30;;;5.00;;
64834;SDS011;51293;59.296;18.006;2022-10-15T04:11:16;9.73;;;4.88;;
64834;SDS011;51293;59.296;18.006;2022-10-15T04:13:41;8.75;;;4.90;;
64834;SDS011;51293;59.296;18.006;2022-10-15T04:16:06;11.63;;;4.95;;
64834;SDS011;51293;59.296;18.006;2022-10-15T04:18:32;8.90;;;4.80;;
64834;SDS011;51293;59.296;18.006;2022-10-15T04:21:00;10.60;;;4.97;;
64834;SDS011;51293;59.296;18.006;2022-10-15T04:23:26;13.07;;;5.65;;
64834;SDS011;51293;59.296;18.006;2022-10-15T04:25:51;9.48;;;5.03;;
64834;SDS011;51293;59.296;18.006;2022-10-15T04:28:17;9.27;;;4.97;;
64834;SDS011;51293;59.296;18.006;2022-10-15T04:30:42;10.50;;;5.70;;
64834;SDS011;51293;59.296;18.006;2022-10-15T04:33:08;13.90;;;5.95;;
64834;SDS011;51293;59.296;18.006;2022-10-15T04:35:34;13.05;;;5.65;;
64834;SDS011;51293;59.296;18.006;2022-10-15T04:37:59;12.35;;;5.97;;
64834;SDS011;51293;59.296;18.006;2022-10-15T04:40:25;10.77;;;6.05;;
64834;SDS011;51293;59.296;18.006;2022-10-15T04:42:50;11.50;;;6.38;;
64834;SDS011;51293;59.296;18.006;2022-10-15T04:45:16;13.23;;;7.15;;
64834;SDS011;51293;59.296;18.006;2022-10-15T04:47:41;13.30;;;6.85;;
64834;SDS011;51293;59.296;18.006;2022-10-15T04:50:07;14.13;;;7.28;;
64834;SDS011;51293;59.296;18.006;2022-10-15T04:52:33;15.90;;;7.35;;
64834;SDS011;51293;59.296;18.006;2022-10-15T04:54:58;13.48;;;7.35;;
64834;SDS011;51293;59.296;18.006;2022-10-15T04:57:24;23.45;;;8.68;;
64834;SDS011;51293;59.296;18.006;2022-10-15T04:59:50;15.55;;;8.35;;
64834;SDS011;51293;59.296;18.006;2022-10-15T05:02:17;16.98;;;8.40;;
64834;SDS011;51293;59.296;18.006;2022-10-15T05:04:42;18.27;;;9.25;;
64834;SDS011;51293;59.296;18.006;2022-10-15T05:07:08;19.52;;;9.15;;
64834;SDS011;51293;59.296;18.006;2022-10-15T05:09:33;17.67;;;9.10;;
64834;SDS011;51293;59.296;18.006;2022-10-15T05:11:58;18.65;;;10.07;;
64834;SDS011;51293;59.296;18.006;2022-10-15T05:14:24;21.13;;;10.88;;
64834;SDS011;51293;59.296;18.006;2022-10-15T05:16:49;24.08;;;10.82;;
64834;SDS011;51293;59.296;18.006;2022-10-15T05:19:15;24.25;;;10.85;;
64834;SDS011;51293;59.296;18.006;2022-10-15T05:21:41;24.48;;;11.77;;
64834;SDS011;51293;59.296;18.006;2022-10-15T05:24:06;22.15;;;11.80;;
64834;SDS011;51293;59.296;18.006;2022-10-15T05:26:31;30.02;;;13.65;;
64834;SDS011;51293;59.296;18.006;2022-10-15T05:28:57;26.50;;;12.88;;
64834;SDS011;51293;59.296;18.006;2022-10-15T05:31:25;29.80;;;12.65;;
64834;SDS011;51293;59.296;18.006;2022-10-15T05:33:52;33.78;;;13.93;;
64834;SDS011;51293;59.296;18.006;2022-10-15T05:36:23;31.50;;;13.80;;
64834;SDS011;51293;59.296;18.006;2022-10-15T05:38:52;29.90;;;13.52;;
64834;SDS011;51293;59.296;18.006;2022-10-15T05:41:22;35.38;;;13.70;;
64834;SDS011;51293;59.296;18.006;2022-10-15T05:43:49;27.88;;;13.07;;
64834;SDS011;51293;59.296;18.006;2022-10-15T05:46:16;29.42;;;13.73;;
64834;SDS011;51293;59.296;18.006;2022-10-15T05:48:42;34.67;;;14.20;;
64834;SDS011;51293;59.296;18.006;2022-10-15T05:51:11;34.47;;;14.93;;
64834;SDS011;51293;59.296;18.006;2022-10-15T05:53:37;32.70;;;14.18;;
64834;SDS011;51293;59.296;18.006;2022-10-15T05:56:04;31.83;;;14.45;;
64834;SDS011;51293;59.296;18.006;2022-10-15T05:58:31;37.78;;;16.10;;
64834;SDS011;51293;59.296;18.006;2022-10-15T06:00:58;34.58;;;16.23;;
64834;SDS011;51293;59.296;18.006;2022-10-15T06:03:25;38.30;;;16.23;;
64834;SDS011;51293;59.296;18.006;2022-10-15T06:05:51;34.97;;;16.48;;
64834;SDS011;51293;59.296;18.006;2022-10-15T06:08:18;36.40;;;16.90;;
64834;SDS011;51293;59.296;18.006;2022-10-15T06:10:44;36.03;;;16.10;;
64834;SDS011;51293;59.296;18.006;2022-10-15T06:13:10;38.38;;;16.88;;
64834;SDS011;51293;59.296;18.006;2022-10-15T06:15:40;39.92;;;17.83;;
64834;SDS011;51293;59.296;18.006;2022-10-15T06:18:07;41.00;;;18.58;;
64834;SDS011;51293;59.296;18.006;2022-10-15T06:20:33;41.55;;;17.55;;
64834;SDS011;51293;59.296;18.006;2022-10-15T06:22:59;41.95;;;18.30;;
64834;SDS011;51293;59.296;18.006;2022-10-15T06:25:25;41.28;;;19.00;;
64834;SDS011;51293;59.296;18.006;2022-10-15T06:27:51;44.80;;;18.27;;
64834;SDS011;51293;59.296;18.006;2022-10-15T06:30:17;43.88;;;18.77;;
64834;SDS011;51293;59.296;18.006;2022-10-15T06:32:46;44.65;;;18.83;;
64834;SDS011;51293;59.296;18.006;2022-10-15T06:35:16;41.03;;;18.88;;
64834;SDS011;51293;59.296;18.006;2022-10-15T06:37:43;45.10;;;18.42;;
64834;SDS011;51293;59.296;18.006;2022-10-15T06:40:09;36.50;;;18.65;;
64834;SDS011;51293;59.296;18.006;2022-10-15T06:42:35;38.72;;;18.38;;
64834;SDS011;51293;59.296;18.006;2022-10-15T06:45:01;38.72;;;18.00;;
64834;SDS011;51293;59.296;18.006;2022-10-15T06:47:26;39.70;;;17.52;;
64834;SDS011;51293;59.296;18.006;2022-10-15T06:49:51;33.63;;;16.85;;
64834;SDS011;51293;59.296;18.006;2022-10-15T06:52:17;34.83;;;16.80;;
64834;SDS011;51293;59.296;18.006;2022-10-15T06:54:42;31.80;;;16.15;;
64834;SDS011;51293;59.296;18.006;2022-10-15T06:57:08;32.63;;;16.15;;
64834;SDS011;51293;59.296;18.006;2022-10-15T06:59:33;27.20;;;15.10;;
64834;SDS011;51293;59.296;18.006;2022-10-15T07:01:59;28.85;;;15.50;;
64834;SDS011;51293;59.296;18.006;2022-10-15T07:04:24;30.30;;;15.85;;
64834;SDS011;51293;59.296;18.006;2022-10-15T07:06:49;33.20;;;15.60;;
64834;SDS011;51293;59.296;18.006;2022-10-15T07:09:15;32.38;;;15.85;;
64834;SDS011;51293;59.296;18.006;2022-10-15T07:11:40;28.02;;;15.35;;
64834;SDS011;51293;59.296;18.006;2022-10-15T07:14:06;27.98;;;14.95;;
64834;SDS011;51293;59.296;18.006;2022-10-15T07:16:31;30.05;;;15.32;;
64834;SDS011;51293;59.296;18.006;2022-10-15T07:18:56;31.77;;;15.50;;
64834;SDS011;51293;59.296;18.006;2022-10-15T07:21:22;32.25;;;16.02;;
64834;SDS011;51293;59.296;18.006;2022-10-15T07:23:47;32.40;;;16.40;;
64834;SDS011;51293;59.296;18.006;2022-10-15T07:26:13;28.90;;;15.35;;
64834;SDS011;51293;59.296;18.006;2022-10-15T07:28:38;38.45;;;17.23;;
64834;SDS011;51293;59.296;18.006;2022-10-15T07:31:04;33.08;;;17.30;;
64834;SDS011;51293;59.296;18.006;2022-10-15T07:33:31;39.75;;;17.30;;
64834;SDS011;51293;59.296;18.006;2022-10-15T07:36:01;33.65;;;16.65;;
64834;SDS011;51293;59.296;18.006;2022-10-15T07:38:30;35.28;;;16.85;;
64834;SDS011;51293;59.296;18.006;2022-10-15T07:40:57;30.23;;;16.30;;
64834;SDS011;51293;59.296;18.006;2022-10-15T07:43:26;30.65;;;16.73;;
64834;SDS011;51293;59.296;18.006;2022-10-15T07:45:52;28.83;;;15.98;;
64834;SDS011;51293;59.296;18.006;2022-10-15T07:48:17;38.13;;;17.88;;
64834;SDS011;51293;59.296;18.006;2022-10-15T07:50:43;31.98;;;15.77;;
64834;SDS011;51293;59.296;18.006;2022-10-15T07:53:08;30.67;;;15.98;;
64834;SDS011;51293;59.296;18.006;2022-10-15T07:55:33;30.00;;;14.80;;
64834;SDS011;51293;59.296;18.006;2022-10-15T07:57:59;32.28;;;15.52;;
64834;SDS011;51293;59.296;18.006;2022-10-15T08:00:24;32.92;;;15.40;;
64834;SDS011;51293;59.296;18.006;2022-10-15T08:02:50;31.92;;;15.40;;
64834;SDS011;51293;59.296;18.006;2022-10-15T08:05:15;29.92;;;15.73;;
64834;SDS011;51293;59.296;18.006;2022-10-15T08:07:41;26.00;;;15.48;;
64834;SDS011;51293;59.296;18.006;2022-10-15T08:10:07;34.00;;;16.58;;
64834;SDS011;51293;59.296;18.006;2022-10-15T08:12:34;30.92;;;15.95;;
64834;SDS011;51293;59.296;18.006;2022-10-15T08:15:00;29.35;;;15.15;;
64834;SDS011;51293;59.296;18.006;2022-10-15T08:17:25;28.45;;;14.80;;
64834;SDS011;51293;59.296;18.006;2022-10-15T08:19:51;28.83;;;15.32;;
64834;SDS011;51293;59.296;18.006;2022-10-15T08:22:16;29.58;;;14.85;;
64834;SDS011;51293;59.296;18.006;2022-10-15T08:24:41;25.98;;;14.43;;
64834;SDS011;51293;59.296;18.006;2022-10-15T08:27:07;28.30;;;15.07;;
64834;SDS011;51293;59.296;18.006;2022-10-15T08:29:32;29.45;;;16.73;;
64834;SDS011;51293;59.296;18.006;2022-10-15T08:31:58;30.23;;;15.13;;
64834;SDS011;51293;59.296;18.006;2022-10-15T08:34:23;30.33;;;15.95;;
64834;SDS011;51293;59.296;18.006;2022-10-15T08:36:48;31.17;;;15.88;;
64834;SDS011;51293;59.296;18.006;2022-10-15T08:39:14;30.95;;;15.13;;
64834;SDS011;51293;59.296;18.006;2022-10-15T08:41:49;30.25;;;15.57;;
64834;SDS011;51293;59.296;18.006;2022-10-15T08:46:48;26.50;;;15.82;;
64834;SDS011;51293;59.296;18.006;2022-10-15T08:49:30;29.65;;;16.20;;
64834;SDS011;51293;59.296;18.006;2022-10-15T08:52:16;29.88;;;15.93;;
64834;SDS011;51293;59.296;18.006;2022-10-15T08:54:48;27.50;;;15.75;;
64834;SDS011;51293;59.296;18.006;2022-10-15T08:57:23;28.05;;;15.68;;
64834;SDS011;51293;59.296;18.006;2022-10-15T09:00:21;27.55;;;14.65;;
64834;SDS011;51293;59.296;18.006;2022-10-15T09:03:03;28.45;;;14.43;;
64834;SDS011;51293;59.296;18.006;2022-10-15T09:08:29;22.77;;;13.55;;
64834;SDS011;51293;59.296;18.006;2022-10-15T09:14:06;23.83;;;12.82;;
64834;SDS011;51293;59.296;18.006;2022-10-15T09:16:36;27.55;;;13.80;;
64834;SDS011;51293;59.296;18.006;2022-10-15T09:19:05;24.83;;;13.73;;
64834;SDS011;51293;59.296;18.006;2022-10-15T09:21:39;29.60;;;14.18;;
64834;SDS011;51293;59.296;18.006;2022-10-15T09:24:05;29.52;;;14.85;;
64834;SDS011;51293;59.296;18.006;2022-10-15T09:40:02;30.25;;;15.70;;
64834;SDS011;51293;59.296;18.006;2022-10-15T09:45:04;29.20;;;14.05;;
64834;SDS011;51293;59.296;18.006;2022-10-15T09:47:33;26.25;;;13.70;;
64834;SDS011;51293;59.296;18.006;2022-10-15T09:50:00;25.20;;;13.05;;
64834;SDS011;51293;59.296;18.006;2022-10-15T09:55:41;23.08;;;14.38;;
64834;SDS011;51293;59.296;18.006;2022-10-15T09:58:26;23.00;;;12.07;;
64834;SDS011;51293;59.296;18.006;2022-10-15T10:00:58;24.20;;;13.60;;
64834;SDS011;51293;59.296;18.006;2022-10-15T10:03:29;24.45;;;13.18;;
64834;SDS011;51293;59.296;18.006;2022-10-15T10:08:24;24.17;;;12.88;;
64834;SDS011;51293;59.296;18.006;2022-10-15T10:10:57;27.27;;;13.73;;
64834;SDS011;51293;59.296;18.006;2022-10-15T10:13:25;26.75;;;13.85;;
64834;SDS011;51293;59.296;18.006;2022-10-15T10:15:54;25.33;;;14.55;;
64834;SDS011;51293;59.296;18.006;2022-10-15T10:18:25;23.58;;;14.13;;
64834;SDS011;51293;59.296;18.006;2022-10-15T10:20:52;26.83;;;14.18;;
64834;SDS011;51293;59.296;18.006;2022-10-15T10:23:22;26.27;;;14.45;;
64834;SDS011;51293;59.296;18.006;2022-10-15T10:25:49;28.30;;;14.73;;
64834;SDS011;51293;59.296;18.006;2022-10-15T10:31:12;30.10;;;15.43;;
64834;SDS011;51293;59.296;18.006;2022-10-15T10:36:04;30.05;;;15.15;;
64834;SDS011;51293;59.296;18.006;2022-10-15T10:38:35;29.50;;;16.92;;
64834;SDS011;51293;59.296;18.006;2022-10-15T10:41:07;29.63;;;16.13;;
64834;SDS011;51293;59.296;18.006;2022-10-15T10:43:38;33.88;;;17.67;;
64834;SDS011;51293;59.296;18.006;2022-10-15T10:48:40;34.15;;;16.85;;
64834;SDS011;51293;59.296;18.006;2022-10-15T10:51:09;32.63;;;17.25;;
64834;SDS011;51293;59.296;18.006;2022-10-15T10:53:43;29.85;;;17.40;;
64834;SDS011;51293;59.296;18.006;2022-10-15T10:56:13;32.67;;;16.90;;
64834;SDS011;51293;59.296;18.006;2022-10-15T10:58:39;34.67;;;17.40;;
64834;SDS011;51293;59.296;18.006;2022-10-15T11:01:08;33.78;;;17.20;;
64834;SDS011;51293;59.296;18.006;2022-10-15T11:03:37;28.98;;;16.63;;
64834;SDS011;51293;59.296;18.006;2022-10-15T11:06:18;34.85;;;17.42;;
64834;SDS011;51293;59.296;18.006;2022-10-15T11:11:34;36.45;;;17.70;;
64834;SDS011;51293;59.296;18.006;2022-10-15T11:14:15;33.05;;;17.92;;
64834;SDS011;51293;59.296;18.006;2022-10-15T11:16:56;31.75;;;17.75;;
64834;SDS011;51293;59.296;18.006;2022-10-15T11:19:35;31.65;;;18.05;;
64834;SDS011;51293;59.296;18.006;2022-10-15T11:25:07;33.03;;;18.17;;
64834;SDS011;51293;59.296;18.006;2022-10-15T11:28:11;36.53;;;18.92;;
64834;SDS011;51293;59.296;18.006;2022-10-15T11:30:54;35.42;;;19.65;;
64834;SDS011;51293;59.296;18.006;2022-10-15T11:34:13;35.13;;;18.48;;
64834;SDS011;51293;59.296;18.006;2022-10-15T11:39:20;37.45;;;19.10;;
64834;SDS011;51293;59.296;18.006;2022-10-15T11:42:28;34.20;;;18.88;;
64834;SDS011;51293;59.296;18.006;2022-10-15T11:50:43;31.42;;;17.67;;
64834;SDS011;51293;59.296;18.006;2022-10-15T11:56:00;37.28;;;17.20;;
64834;SDS011;51293;59.296;18.006;2022-10-15T12:01:36;31.77;;;17.33;;
64834;SDS011;51293;59.296;18.006;2022-10-15T12:04:10;28.10;;;17.50;;
64834;SDS011;51293;59.296;18.006;2022-10-15T12:06:42;29.40;;;17.88;;
64834;SDS011;51293;59.296;18.006;2022-10-15T12:09:15;32.05;;;17.38;;
64834;SDS011;51293;59.296;18.006;2022-10-15T12:11:54;29.77;;;17.55;;
64834;SDS011;51293;59.296;18.006;2022-10-15T12:14:37;32.47;;;18.63;;
64834;SDS011;51293;59.296;18.006;2022-10-15T12:19:55;36.83;;;19.15;;
64834;SDS011;51293;59.296;18.006;2022-10-15T12:22:34;32.78;;;19.38;;
64834;SDS011;51293;59.296;18.006;2022-10-15T12:30:33;34.55;;;21.00;;
64834;SDS011;51293;59.296;18.006;2022-10-15T12:33:01;36.50;;;20.35;;
64834;SDS011;51293;59.296;18.006;2022-10-15T12:35:36;39.03;;;20.35;;
64834;SDS011;51293;59.296;18.006;2022-10-15T12:38:17;35.65;;;19.85;;
64834;SDS011;51293;59.296;18.006;2022-10-15T12:41:02;35.63;;;19.65;;
64834;SDS011;51293;59.296;18.006;2022-10-15T12:43:30;31.00;;;18.77;;
64834;SDS011;51293;59.296;18.006;2022-10-15T12:46:00;30.70;;;17.73;;
64834;SDS011;51293;59.296;18.006;2022-10-15T12:48:29;28.55;;;17.85;;
64834;SDS011;51293;59.296;18.006;2022-10-15T12:53:41;31.27;;;18.75;;
64834;SDS011;51293;59.296;18.006;2022-10-15T12:58:40;34.20;;;18.60;;
64834;SDS011;51293;59.296;18.006;2022-10-15T13:08:51;36.55;;;19.30;;
64834;SDS011;51293;59.296;18.006;2022-10-15T13:11:51;33.65;;;19.42;;
64834;SDS011;51293;59.296;18.006;2022-10-15T13:17:13;34.90;;;20.55;;
64834;SDS011;51293;59.296;18.006;2022-10-15T13:22:24;37.17;;;20.17;;
64834;SDS011;51293;59.296;18.006;2022-10-15T13:27:28;35.95;;;19.13;;
64834;SDS011;51293;59.296;18.006;2022-10-15T13:29:59;32.63;;;18.25;;
64834;SDS011;51293;59.296;18.006;2022-10-15T13:32:26;30.92;;;17.55;;
64834;SDS011;51293;59.296;18.006;2022-10-15T13:34:55;29.38;;;17.58;;
64834;SDS011;51293;59.296;18.006;2022-10-15T13:37:23;27.45;;;15.70;;
64834;SDS011;51293;59.296;18.006;2022-10-15T13:39:55;28.48;;;16.92;;
64834;SDS011;51293;59.296;18.006;2022-10-15T13:42:22;28.58;;;17.25;;
64834;SDS011;51293;59.296;18.006;2022-10-15T13:44:58;31.60;;;16.38;;
64834;SDS011;51293;59.296;18.006;2022-10-15T13:47:27;26.48;;;15.63;;
64834;SDS011;51293;59.296;18.006;2022-10-15T13:50:17;28.02;;;16.33;;
64834;SDS011;51293;59.296;18.006;2022-10-15T13:52:44;28.45;;;15.95;;
64834;SDS011;51293;59.296;18.006;2022-10-15T13:57:49;30.25;;;16.58;;
64834;SDS011;51293;59.296;18.006;2022-10-15T14:00:34;31.13;;;16.98;;
64834;SDS011;51293;59.296;18.006;2022-10-15T14:03:17;29.73;;;16.33;;
64834;SDS011;51293;59.296;18.006;2022-10-15T14:05:46;30.38;;;17.80;;
64834;SDS011;51293;59.296;18.006;2022-10-15T14:08:17;33.30;;;18.10;;
64834;SDS011;51293;59.296;18.006;2022-10-15T14:10:48;35.30;;;19.52;;
64834;SDS011;51293;59.296;18.006;2022-10-15T14:13:15;34.33;;;18.58;;
64834;SDS011;51293;59.296;18.006;2022-10-15T14:15:51;35.22;;;19.48;;
64834;SDS011;51293;59.296;18.006;2022-10-15T14:18:27;38.72;;;19.60;;
64834;SDS011;51293;59.296;18.006;2022-10-15T14:21:02;35.63;;;19.25;;
64834;SDS011;51293;59.296;18.006;2022-10-15T14:23:34;38.38;;;19.27;;
64834;SDS011;51293;59.296;18.006;2022-10-15T14:25:59;36.00;;;19.17;;
64834;SDS011;51293;59.296;18.006;2022-10-15T14:28:27;32.55;;;18.80;;
64834;SDS011;51293;59.296;18.006;2022-10-15T14:30:55;36.67;;;20.15;;
64834;SDS011;51293;59.296;18.006;2022-10-15T14:38:43;35.08;;;20.05;;
64834;SDS011;51293;59.296;18.006;2022-10-15T14:41:28;39.88;;;20.55;;
64834;SDS011;51293;59.296;18.006;2022-10-15T14:44:38;45.58;;;20.67;;
64834;SDS011;51293;59.296;18.006;2022-10-15T14:46:48;38.53;;;20.50;;
64834;SDS011;51293;59.296;18.006;2022-10-15T14:54:36;43.03;;;21.25;;
64834;SDS011;51293;59.296;18.006;2022-10-15T14:57:03;40.88;;;21.95;;
64834;SDS011;51293;59.296;18.006;2022-10-15T14:59:36;43.90;;;20.98;;
64834;SDS011;51293;59.296;18.006;2022-10-15T15:02:02;43.33;;;22.27;;
64834;SDS011;51293;59.296;18.006;2022-10-15T15:04:31;41.83;;;22.10;;
64834;SDS011;51293;59.296;18.006;2022-10-15T15:06:58;44.10;;;22.60;;
64834;SDS011;51293;59.296;18.006;2022-10-15T15:09:24;41.63;;;22.45;;
64834;SDS011;51293;59.296;18.006;2022-10-15T15:11:49;45.08;;;22.67;;
64834;SDS011;51293;59.296;18.006;2022-10-15T15:14:21;49.35;;;23.25;;
64834;SDS011;51293;59.296;18.006;2022-10-15T15:16:49;45.40;;;23.40;;
64834;SDS011;51293;59.296;18.006;2022-10-15T15:19:15;44.20;;;23.98;;
64834;SDS011;51293;59.296;18.006;2022-10-15T15:21:40;45.10;;;21.85;;
64834;SDS011;51293;59.296;18.006;2022-10-15T15:24:07;52.58;;;24.15;;
64834;SDS011;51293;59.296;18.006;2022-10-15T15:26:33;51.50;;;24.65;;
64834;SDS011;51293;59.296;18.006;2022-10-15T15:28:58;43.33;;;23.38;;
64834;SDS011;51293;59.296;18.006;2022-10-15T15:31:23;45.95;;;23.88;;
64834;SDS011;51293;59.296;18.006;2022-10-15T15:33:49;44.78;;;23.35;;
64834;SDS011;51293;59.296;18.006;2022-10-15T15:36:16;48.53;;;24.30;;
64834;SDS011;51293;59.296;18.006;2022-10-15T15:38:42;45.35;;;24.17;;
64834;SDS011;51293;59.296;18.006;2022-10-15T15:41:15;48.20;;;24.08;;
64834;SDS011;51293;59.296;18.006;2022-10-15T15:43:42;52.97;;;23.80;;
64834;SDS011;51293;59.296;18.006;2022-10-15T15:46:08;48.40;;;23.05;;
64834;SDS011;51293;59.296;18.006;2022-10-15T15:48:34;45.58;;;23.20;;
64834;SDS011;51293;59.296;18.006;2022-10-15T15:51:01;47.00;;;23.13;;
64834;SDS011;51293;59.296;18.006;2022-10-15T15:53:28;50.17;;;23.90;;
64834;SDS011;51293;59.296;18.006;2022-10-15T15:55:54;42.17;;;22.38;;
64834;SDS011;51293;59.296;18.006;2022-10-15T15:58:19;47.63;;;23.20;;
64834;SDS011;51293;59.296;18.006;2022-10-15T16:00:44;48.63;;;24.35;;
64834;SDS011;51293;59.296;18.006;2022-10-15T16:03:13;56.78;;;24.67;;
64834;SDS011;51293;59.296;18.006;2022-10-15T16:05:38;44.05;;;23.27;;
64834;SDS011;51293;59.296;18.006;2022-10-15T16:08:05;49.50;;;23.55;;
64834;SDS011;51293;59.296;18.006;2022-10-15T16:10:32;53.38;;;24.48;;
64834;SDS011;51293;59.296;18.006;2022-10-15T16:12:58;49.78;;;24.45;;
64834;SDS011;51293;59.296;18.006;2022-10-15T16:15:24;55.28;;;24.80;;
64834;SDS011;51293;59.296;18.006;2022-10-15T16:17:49;53.42;;;25.38;;
64834;SDS011;51293;59.296;18.006;2022-10-15T16:20:14;60.22;;;25.15;;
64834;SDS011;51293;59.296;18.006;2022-10-15T16:22:40;52.42;;;25.73;;
64834;SDS011;51293;59.296;18.006;2022-10-15T16:25:06;54.65;;;25.85;;
64834;SDS011;51293;59.296;18.006;2022-10-15T16:27:32;55.83;;;25.60;;
64834;SDS011;51293;59.296;18.006;2022-10-15T16:29:58;55.67;;;26.30;;
64834;SDS011;51293;59.296;18.006;2022-10-15T16:32:25;61.47;;;28.05;;
64834;SDS011;51293;59.296;18.006;2022-10-15T16:34:50;63.38;;;27.90;;
64834;SDS011;51293;59.296;18.006;2022-10-15T16:37:15;59.40;;;28.10;;
64834;SDS011;51293;59.296;18.006;2022-10-15T16:39:41;61.47;;;27.15;;